sensor_id;sensor_type;location;lat;lon;timestamp;P1;durP1;ratioP1;P2;durP2;ratioP2
61911;SDS011;49973;52.084;5.412;2023-03-29T00:01:10;2.80;;;2.10;;
61911;SDS011;49973;52.084;5.412;2023-03-29T00:04:00;4.93;;;1.80;;
61911;SDS011;49973;52.084;5.412;2023-03-29T00:06:29;5.30;;;2.00;;
61911;SDS011;49973;52.084;5.412;2023-03-29T00:08:59;3.57;;;1.97;;
61911;SDS011;49973;52.084;5.412;2023-03-29T00:11:31;7.07;;;2.27;;
61911;SDS011;49973;52.084;5.412;2023-03-29T00:14:00;3.00;;;1.70;;
61911;SDS011;49973;52.084;5.412;2023-03-29T00:16:28;2.40;;;1.83;;
61911;SDS011;49973;52.084;5.412;2023-03-29T00:18:57;4.53;;;2.00;;
61911;SDS011;49973;52.084;5.412;2023-03-29T00:21:27;3.47;;;1.90;;
61911;SDS011;49973;52.084;5.412;2023-03-29T00:23:56;4.30;;;2.40;;
61911;SDS011;49973;52.084;5.412;2023-03-29T00:26:24;2.83;;;1.87;;
61911;SDS011;49973;52.084;5.412;2023-03-29T00:28:53;6.40;;;2.13;;
61911;SDS011;49973;52.084;5.412;2023-03-29T00:31:22;5.00;;;2.00;;
61911;SDS011;49973;52.084;5.412;2023-03-29T00:33:50;2.27;;;1.60;;
61911;SDS011;49973;52.084;5.412;2023-03-29T00:36:19;5.77;;;1.90;;
61911;SDS011;49973;52.084;5.412;2023-03-29T00:38:50;2.73;;;2.30;;
61911;SDS011;49973;52.084;5.412;2023-03-29T00:41:19;3.00;;;2.07;;
61911;SDS011;49973;52.084;5.412;2023-03-29T00:43:52;2.97;;;1.80;;
61911;SDS011;49973;52.084;5.412;2023-03-29T00:46:23;4.40;;;2.10;;
61911;SDS011;49973;52.084;5.412;2023-03-29T00:48:53;4.70;;;1.83;;
61911;SDS011;49973;52.084;5.412;2023-03-29T00:51:25;4.53;;;2.47;;
61911;SDS011;49973;52.084;5.412;2023-03-29T00:53:59;3.67;;;1.80;;
61911;SDS011;49973;52.084;5.412;2023-03-29T00:56:31;3.33;;;1.97;;
61911;SDS011;49973;52.084;5.412;2023-03-29T00:59:04;4.07;;;2.20;;
61911;SDS011;49973;52.084;5.412;2023-03-29T01:01:37;2.73;;;2.20;;
61911;SDS011;49973;52.084;5.412;2023-03-29T01:04:11;3.00;;;2.00;;
61911;SDS011;49973;52.084;5.412;2023-03-29T01:06:45;3.07;;;1.70;;
61911;SDS011;49973;52.084;5.412;2023-03-29T01:09:21;5.73;;;1.60;;
61911;SDS011;49973;52.084;5.412;2023-03-29T01:11:53;2.43;;;1.57;;
61911;SDS011;49973;52.084;5.412;2023-03-29T01:14:27;2.83;;;1.90;;
61911;SDS011;49973;52.084;5.412;2023-03-29T01:17:02;2.40;;;1.70;;
61911;SDS011;49973;52.084;5.412;2023-03-29T01:19:33;2.93;;;2.20;;
61911;SDS011;49973;52.084;5.412;2023-03-29T01:22:08;3.00;;;2.07;;
61911;SDS011;49973;52.084;5.412;2023-03-29T01:24:50;3.87;;;1.83;;
61911;SDS011;49973;52.084;5.412;2023-03-29T01:30:20;3.50;;;2.27;;
61911;SDS011;49973;52.084;5.412;2023-03-29T01:32:54;7.03;;;1.60;;
61911;SDS011;49973;52.084;5.412;2023-03-29T01:35:28;7.97;;;2.03;;
61911;SDS011;49973;52.084;5.412;2023-03-29T01:38:03;2.93;;;2.00;;
61911;SDS011;49973;52.084;5.412;2023-03-29T01:40:36;3.90;;;1.90;;
61911;SDS011;49973;52.084;5.412;2023-03-29T01:43:09;3.33;;;1.87;;
61911;SDS011;49973;52.084;5.412;2023-03-29T01:45:44;7.43;;;2.10;;
61911;SDS011;49973;52.084;5.412;2023-03-29T01:48:18;5.03;;;1.90;;
61911;SDS011;49973;52.084;5.412;2023-03-29T01:50:54;2.37;;;1.53;;
61911;SDS011;49973;52.084;5.412;2023-03-29T01:53:32;2.83;;;1.90;;
61911;SDS011;49973;52.084;5.412;2023-03-29T01:56:06;3.93;;;1.87;;
61911;SDS011;49973;52.084;5.412;2023-03-29T01:58:39;6.93;;;1.90;;
61911;SDS011;49973;52.084;5.412;2023-03-29T02:01:12;3.30;;;2.03;;
61911;SDS011;49973;52.084;5.412;2023-03-29T02:03:45;3.30;;;1.50;;
61911;SDS011;49973;52.084;5.412;2023-03-29T02:06:17;4.10;;;1.87;;
61911;SDS011;49973;52.084;5.412;2023-03-29T02:08:49;1.77;;;1.40;;
61911;SDS011;49973;52.084;5.412;2023-03-29T02:11:20;5.90;;;2.47;;
61911;SDS011;49973;52.084;5.412;2023-03-29T02:13:51;2.23;;;1.70;;
61911;SDS011;49973;52.084;5.412;2023-03-29T02:16:20;2.97;;;2.07;;
61911;SDS011;49973;52.084;5.412;2023-03-29T02:18:49;3.43;;;2.03;;
61911;SDS011;49973;52.084;5.412;2023-03-29T02:21:20;3.73;;;1.80;;
61911;SDS011;49973;52.084;5.412;2023-03-29T02:23:53;6.70;;;1.73;;
61911;SDS011;49973;52.084;5.412;2023-03-29T02:26:24;4.53;;;1.93;;
61911;SDS011;49973;52.084;5.412;2023-03-29T02:28:55;4.50;;;2.70;;
61911;SDS011;49973;52.084;5.412;2023-03-29T02:31:24;3.10;;;2.30;;
61911;SDS011;49973;52.084;5.412;2023-03-29T02:33:57;5.57;;;2.80;;
61911;SDS011;49973;52.084;5.412;2023-03-29T02:36:35;4.77;;;2.40;;
61911;SDS011;49973;52.084;5.412;2023-03-29T02:39:07;6.07;;;2.13;;
61911;SDS011;49973;52.084;5.412;2023-03-29T02:41:41;7.07;;;1.77;;
61911;SDS011;49973;52.084;5.412;2023-03-29T02:44:15;4.70;;;2.27;;
61911;SDS011;49973;52.084;5.412;2023-03-29T02:46:48;5.37;;;2.37;;
61911;SDS011;49973;52.084;5.412;2023-03-29T02:49:18;4.83;;;2.50;;
61911;SDS011;49973;52.084;5.412;2023-03-29T02:51:48;5.90;;;2.57;;
61911;SDS011;49973;52.084;5.412;2023-03-29T02:54:21;2.80;;;2.00;;
61911;SDS011;49973;52.084;5.412;2023-03-29T02:56:54;7.57;;;2.03;;
61911;SDS011;49973;52.084;5.412;2023-03-29T02:59:25;3.53;;;2.07;;
61911;SDS011;49973;52.084;5.412;2023-03-29T03:01:56;3.40;;;2.20;;
61911;SDS011;49973;52.084;5.412;2023-03-29T03:04:26;4.33;;;2.23;;
61911;SDS011;49973;52.084;5.412;2023-03-29T03:06:55;4.23;;;2.37;;
61911;SDS011;49973;52.084;5.412;2023-03-29T03:09:24;3.80;;;1.83;;
61911;SDS011;49973;52.084;5.412;2023-03-29T03:11:54;10.83;;;2.70;;
61911;SDS011;49973;52.084;5.412;2023-03-29T03:14:25;6.03;;;1.87;;
61911;SDS011;49973;52.084;5.412;2023-03-29T03:16:56;6.20;;;2.40;;
61911;SDS011;49973;52.084;5.412;2023-03-29T03:19:25;5.00;;;2.30;;
61911;SDS011;49973;52.084;5.412;2023-03-29T03:21:54;6.87;;;2.50;;
61911;SDS011;49973;52.084;5.412;2023-03-29T03:24:22;5.00;;;2.47;;
61911;SDS011;49973;52.084;5.412;2023-03-29T03:26:52;7.90;;;2.47;;
61911;SDS011;49973;52.084;5.412;2023-03-29T03:29:21;3.80;;;2.27;;
61911;SDS011;49973;52.084;5.412;2023-03-29T03:32:10;3.37;;;1.67;;
61911;SDS011;49973;52.084;5.412;2023-03-29T03:34:57;6.73;;;2.37;;
61911;SDS011;49973;52.084;5.412;2023-03-29T03:37:26;12.43;;;2.57;;
61911;SDS011;49973;52.084;5.412;2023-03-29T03:39:55;7.43;;;2.30;;
61911;SDS011;49973;52.084;5.412;2023-03-29T03:42:26;4.37;;;2.27;;
61911;SDS011;49973;52.084;5.412;2023-03-29T03:44:55;3.63;;;2.37;;
61911;SDS011;49973;52.084;5.412;2023-03-29T03:47:44;4.33;;;2.20;;
61911;SDS011;49973;52.084;5.412;2023-03-29T03:50:22;8.50;;;2.47;;
61911;SDS011;49973;52.084;5.412;2023-03-29T03:52:51;3.47;;;2.33;;
61911;SDS011;49973;52.084;5.412;2023-03-29T03:55:20;3.40;;;2.23;;
61911;SDS011;49973;52.084;5.412;2023-03-29T03:58:05;4.33;;;2.07;;
61911;SDS011;49973;52.084;5.412;2023-03-29T04:00:34;6.37;;;3.00;;
61911;SDS011;49973;52.084;5.412;2023-03-29T04:03:20;6.33;;;2.53;;
61911;SDS011;49973;52.084;5.412;2023-03-29T04:05:50;6.20;;;2.20;;
61911;SDS011;49973;52.084;5.412;2023-03-29T04:08:23;7.90;;;2.27;;
61911;SDS011;49973;52.084;5.412;2023-03-29T04:11:12;4.17;;;2.37;;
61911;SDS011;49973;52.084;5.412;2023-03-29T04:13:42;4.53;;;2.30;;
61911;SDS011;49973;52.084;5.412;2023-03-29T04:16:33;2.47;;;2.10;;
61911;SDS011;49973;52.084;5.412;2023-03-29T04:19:20;4.67;;;2.30;;
61911;SDS011;49973;52.084;5.412;2023-03-29T04:21:49;2.27;;;1.80;;
61911;SDS011;49973;52.084;5.412;2023-03-29T04:24:18;4.80;;;1.97;;
61911;SDS011;49973;52.084;5.412;2023-03-29T04:27:07;6.20;;;2.27;;
61911;SDS011;49973;52.084;5.412;2023-03-29T04:29:36;3.27;;;2.20;;
61911;SDS011;49973;52.084;5.412;2023-03-29T04:32:16;3.40;;;2.20;;
61911;SDS011;49973;52.084;5.412;2023-03-29T04:34:56;6.80;;;2.67;;
61911;SDS011;49973;52.084;5.412;2023-03-29T04:37:25;3.90;;;2.33;;
61911;SDS011;49973;52.084;5.412;2023-03-29T04:39:57;6.20;;;2.50;;
61911;SDS011;49973;52.084;5.412;2023-03-29T04:42:32;8.80;;;2.77;;
61911;SDS011;49973;52.084;5.412;2023-03-29T04:45:01;3.30;;;2.17;;
61911;SDS011;49973;52.084;5.412;2023-03-29T04:47:48;5.03;;;2.07;;
61911;SDS011;49973;52.084;5.412;2023-03-29T04:50:21;5.73;;;2.47;;
61911;SDS011;49973;52.084;5.412;2023-03-29T04:52:51;5.50;;;2.43;;
61911;SDS011;49973;52.084;5.412;2023-03-29T04:55:20;4.77;;;2.13;;
61911;SDS011;49973;52.084;5.412;2023-03-29T04:57:58;4.90;;;2.73;;
61911;SDS011;49973;52.084;5.412;2023-03-29T05:00:33;5.13;;;2.40;;
61911;SDS011;49973;52.084;5.412;2023-03-29T05:03:19;3.73;;;2.03;;
61911;SDS011;49973;52.084;5.412;2023-03-29T05:06:02;7.93;;;2.53;;
61911;SDS011;49973;52.084;5.412;2023-03-29T05:08:33;3.27;;;2.37;;
61911;SDS011;49973;52.084;5.412;2023-03-29T05:11:23;4.40;;;2.30;;
61911;SDS011;49973;52.084;5.412;2023-03-29T05:13:52;5.80;;;2.60;;
61911;SDS011;49973;52.084;5.412;2023-03-29T05:16:26;4.03;;;2.33;;
61911;SDS011;49973;52.084;5.412;2023-03-29T05:18:56;4.53;;;2.77;;
61911;SDS011;49973;52.084;5.412;2023-03-29T05:21:26;4.70;;;2.30;;
61911;SDS011;49973;52.084;5.412;2023-03-29T05:23:58;4.17;;;2.90;;
61911;SDS011;49973;52.084;5.412;2023-03-29T05:26:49;5.00;;;2.80;;
61911;SDS011;49973;52.084;5.412;2023-03-29T05:29:19;2.60;;;2.23;;
61911;SDS011;49973;52.084;5.412;2023-03-29T05:31:56;4.50;;;2.50;;
61911;SDS011;49973;52.084;5.412;2023-03-29T05:34:26;6.43;;;2.43;;
61911;SDS011;49973;52.084;5.412;2023-03-29T05:37:00;5.67;;;2.40;;
61911;SDS011;49973;52.084;5.412;2023-03-29T05:39:38;4.23;;;2.43;;
61911;SDS011;49973;52.084;5.412;2023-03-29T05:42:08;2.87;;;2.10;;
61911;SDS011;49973;52.084;5.412;2023-03-29T05:44:52;8.00;;;2.70;;
61911;SDS011;49973;52.084;5.412;2023-03-29T05:47:20;5.47;;;2.30;;
61911;SDS011;49973;52.084;5.412;2023-03-29T05:49:49;3.43;;;2.70;;
61911;SDS011;49973;52.084;5.412;2023-03-29T05:52:23;5.27;;;2.43;;
61911;SDS011;49973;52.084;5.412;2023-03-29T05:54:52;4.67;;;2.43;;
61911;SDS011;49973;52.084;5.412;2023-03-29T05:57:20;5.43;;;2.43;;
61911;SDS011;49973;52.084;5.412;2023-03-29T05:59:50;3.07;;;2.33;;
61911;SDS011;49973;52.084;5.412;2023-03-29T06:02:19;3.67;;;2.50;;
61911;SDS011;49973;52.084;5.412;2023-03-29T06:04:51;4.00;;;2.27;;
61911;SDS011;49973;52.084;5.412;2023-03-29T06:07:22;2.53;;;2.33;;
61911;SDS011;49973;52.084;5.412;2023-03-29T06:10:09;6.60;;;2.93;;
61911;SDS011;49973;52.084;5.412;2023-03-29T06:12:42;5.43;;;2.73;;
61911;SDS011;49973;52.084;5.412;2023-03-29T06:15:12;4.33;;;2.60;;
61911;SDS011;49973;52.084;5.412;2023-03-29T06:17:48;3.50;;;2.00;;
61911;SDS011;49973;52.084;5.412;2023-03-29T06:20:16;9.20;;;3.23;;
61911;SDS011;49973;52.084;5.412;2023-03-29T06:22:52;4.87;;;2.27;;
61911;SDS011;49973;52.084;5.412;2023-03-29T06:25:21;5.73;;;2.73;;
61911;SDS011;49973;52.084;5.412;2023-03-29T06:27:51;5.70;;;2.70;;
61911;SDS011;49973;52.084;5.412;2023-03-29T06:30:20;5.03;;;3.00;;
61911;SDS011;49973;52.084;5.412;2023-03-29T06:32:53;5.23;;;2.60;;
61911;SDS011;49973;52.084;5.412;2023-03-29T06:35:46;2.90;;;2.23;;
61911;SDS011;49973;52.084;5.412;2023-03-29T06:38:22;4.13;;;3.10;;
61911;SDS011;49973;52.084;5.412;2023-03-29T06:40:58;4.37;;;2.70;;
61911;SDS011;49973;52.084;5.412;2023-03-29T06:43:38;7.63;;;3.20;;
61911;SDS011;49973;52.084;5.412;2023-03-29T06:46:12;5.00;;;2.83;;
61911;SDS011;49973;52.084;5.412;2023-03-29T06:48:58;5.70;;;2.67;;
61911;SDS011;49973;52.084;5.412;2023-03-29T06:51:46;4.77;;;3.23;;
61911;SDS011;49973;52.084;5.412;2023-03-29T06:54:16;8.37;;;3.13;;
61911;SDS011;49973;52.084;5.412;2023-03-29T06:56:56;8.50;;;3.60;;
61911;SDS011;49973;52.084;5.412;2023-03-29T06:59:27;6.77;;;3.40;;
61911;SDS011;49973;52.084;5.412;2023-03-29T07:02:10;8.93;;;3.83;;
61911;SDS011;49973;52.084;5.412;2023-03-29T07:04:49;6.13;;;3.00;;
61911;SDS011;49973;52.084;5.412;2023-03-29T07:07:25;6.67;;;2.73;;
61911;SDS011;49973;52.084;5.412;2023-03-29T07:10:14;12.07;;;3.60;;
61911;SDS011;49973;52.084;5.412;2023-03-29T07:13:02;5.50;;;3.77;;
61911;SDS011;49973;52.084;5.412;2023-03-29T07:15:32;4.77;;;2.93;;
61911;SDS011;49973;52.084;5.412;2023-03-29T07:18:23;7.03;;;3.07;;
61911;SDS011;49973;52.084;5.412;2023-03-29T07:20:52;4.10;;;2.77;;
61911;SDS011;49973;52.084;5.412;2023-03-29T07:23:22;4.90;;;2.73;;
61911;SDS011;49973;52.084;5.412;2023-03-29T07:25:52;4.43;;;3.13;;
61911;SDS011;49973;52.084;5.412;2023-03-29T07:28:21;5.30;;;3.40;;
61911;SDS011;49973;52.084;5.412;2023-03-29T07:30:51;4.97;;;3.30;;
61911;SDS011;49973;52.084;5.412;2023-03-29T07:33:21;8.97;;;3.70;;
61911;SDS011;49973;52.084;5.412;2023-03-29T07:36:03;6.70;;;3.10;;
61911;SDS011;49973;52.084;5.412;2023-03-29T07:38:34;7.20;;;3.23;;
61911;SDS011;49973;52.084;5.412;2023-03-29T07:41:15;6.33;;;3.40;;
61911;SDS011;49973;52.084;5.412;2023-03-29T07:43:46;7.60;;;4.47;;
61911;SDS011;49973;52.084;5.412;2023-03-29T07:46:22;7.00;;;4.57;;
61911;SDS011;49973;52.084;5.412;2023-03-29T07:48:51;9.30;;;4.73;;
61911;SDS011;49973;52.084;5.412;2023-03-29T07:51:22;11.90;;;5.00;;
61911;SDS011;49973;52.084;5.412;2023-03-29T07:53:58;8.20;;;4.33;;
61911;SDS011;49973;52.084;5.412;2023-03-29T07:56:46;5.37;;;3.90;;
61911;SDS011;49973;52.084;5.412;2023-03-29T07:59:36;8.37;;;5.13;;
61911;SDS011;49973;52.084;5.412;2023-03-29T08:02:12;14.27;;;4.80;;
61911;SDS011;49973;52.084;5.412;2023-03-29T08:04:44;5.80;;;3.93;;
61911;SDS011;49973;52.084;5.412;2023-03-29T08:07:16;12.07;;;4.57;;
61911;SDS011;49973;52.084;5.412;2023-03-29T08:10:06;9.97;;;4.30;;
61911;SDS011;49973;52.084;5.412;2023-03-29T08:12:57;11.77;;;5.33;;
61911;SDS011;49973;52.084;5.412;2023-03-29T08:15:40;16.67;;;5.57;;
61911;SDS011;49973;52.084;5.412;2023-03-29T08:18:22;9.47;;;5.50;;
61911;SDS011;49973;52.084;5.412;2023-03-29T08:20:51;11.07;;;6.13;;
61911;SDS011;49973;52.084;5.412;2023-03-29T08:23:19;17.40;;;6.23;;
61911;SDS011;49973;52.084;5.412;2023-03-29T08:25:58;13.73;;;6.37;;
61911;SDS011;49973;52.084;5.412;2023-03-29T08:28:28;11.43;;;5.63;;
61911;SDS011;49973;52.084;5.412;2023-03-29T08:30:59;8.20;;;5.07;;
61911;SDS011;49973;52.084;5.412;2023-03-29T08:33:28;10.00;;;5.20;;
61911;SDS011;49973;52.084;5.412;2023-03-29T08:36:16;11.83;;;5.13;;
61911;SDS011;49973;52.084;5.412;2023-03-29T08:38:45;9.53;;;5.63;;
61911;SDS011;49973;52.084;5.412;2023-03-29T08:41:18;11.03;;;5.17;;
61911;SDS011;49973;52.084;5.412;2023-03-29T08:44:01;8.23;;;4.37;;
61911;SDS011;49973;52.084;5.412;2023-03-29T08:46:50;7.93;;;4.03;;
61911;SDS011;49973;52.084;5.412;2023-03-29T08:49:33;7.73;;;4.60;;
61911;SDS011;49973;52.084;5.412;2023-03-29T08:52:09;12.17;;;4.93;;
61911;SDS011;49973;52.084;5.412;2023-03-29T08:54:44;7.87;;;4.10;;
61911;SDS011;49973;52.084;5.412;2023-03-29T08:57:27;10.00;;;4.90;;
61911;SDS011;49973;52.084;5.412;2023-03-29T09:00:12;9.33;;;4.60;;
61911;SDS011;49973;52.084;5.412;2023-03-29T09:02:47;7.87;;;4.17;;
61911;SDS011;49973;52.084;5.412;2023-03-29T09:05:21;12.43;;;4.90;;
61911;SDS011;49973;52.084;5.412;2023-03-29T09:08:11;10.43;;;4.93;;
61911;SDS011;49973;52.084;5.412;2023-03-29T09:10:45;10.93;;;4.17;;
61911;SDS011;49973;52.084;5.412;2023-03-29T09:13:18;11.60;;;5.07;;
61911;SDS011;49973;52.084;5.412;2023-03-29T09:16:00;9.90;;;4.53;;
61911;SDS011;49973;52.084;5.412;2023-03-29T09:18:41;12.77;;;4.90;;
61911;SDS011;49973;52.084;5.412;2023-03-29T09:21:20;7.77;;;4.30;;
61911;SDS011;49973;52.084;5.412;2023-03-29T09:24:00;9.20;;;5.20;;
61911;SDS011;49973;52.084;5.412;2023-03-29T09:27:06;8.50;;;4.47;;
61911;SDS011;49973;52.084;5.412;2023-03-29T09:32:55;8.43;;;4.47;;
61911;SDS011;49973;52.084;5.412;2023-03-29T09:35:41;10.50;;;5.50;;
61911;SDS011;49973;52.084;5.412;2023-03-29T09:38:14;12.53;;;5.47;;
61911;SDS011;49973;52.084;5.412;2023-03-29T09:40:46;9.33;;;4.80;;
61911;SDS011;49973;52.084;5.412;2023-03-29T09:43:23;7.40;;;4.63;;
61911;SDS011;49973;52.084;5.412;2023-03-29T09:45:59;11.87;;;5.60;;
61911;SDS011;49973;52.084;5.412;2023-03-29T09:48:35;10.60;;;5.60;;
61911;SDS011;49973;52.084;5.412;2023-03-29T09:51:07;16.80;;;5.70;;
61911;SDS011;49973;52.084;5.412;2023-03-29T09:53:38;12.73;;;6.37;;
61911;SDS011;49973;52.084;5.412;2023-03-29T09:56:16;11.43;;;5.47;;
61911;SDS011;49973;52.084;5.412;2023-03-29T09:58:50;11.30;;;4.67;;
61911;SDS011;49973;52.084;5.412;2023-03-29T10:01:19;8.27;;;5.60;;
61911;SDS011;49973;52.084;5.412;2023-03-29T10:03:51;10.63;;;5.70;;
61911;SDS011;49973;52.084;5.412;2023-03-29T10:06:22;11.30;;;5.77;;
61911;SDS011;49973;52.084;5.412;2023-03-29T10:08:56;9.73;;;5.43;;
61911;SDS011;49973;52.084;5.412;2023-03-29T10:11:32;9.30;;;5.63;;
61911;SDS011;49973;52.084;5.412;2023-03-29T10:14:04;12.53;;;5.40;;
61911;SDS011;49973;52.084;5.412;2023-03-29T10:16:39;12.37;;;6.17;;
61911;SDS011;49973;52.084;5.412;2023-03-29T10:19:17;12.77;;;6.77;;
61911;SDS011;49973;52.084;5.412;2023-03-29T10:21:47;13.83;;;5.43;;
61911;SDS011;49973;52.084;5.412;2023-03-29T10:24:17;8.43;;;5.50;;
61911;SDS011;49973;52.084;5.412;2023-03-29T10:26:47;11.37;;;5.83;;
61911;SDS011;49973;52.084;5.412;2023-03-29T10:29:21;10.40;;;5.77;;
61911;SDS011;49973;52.084;5.412;2023-03-29T10:31:50;13.57;;;7.33;;
61911;SDS011;49973;52.084;5.412;2023-03-29T10:34:22;16.17;;;7.93;;
61911;SDS011;49973;52.084;5.412;2023-03-29T10:36:54;12.50;;;7.50;;
61911;SDS011;49973;52.084;5.412;2023-03-29T10:39:26;15.80;;;8.27;;
61911;SDS011;49973;52.084;5.412;2023-03-29T10:41:59;14.60;;;8.50;;
61911;SDS011;49973;52.084;5.412;2023-03-29T10:44:31;22.87;;;12.30;;
61911;SDS011;49973;52.084;5.412;2023-03-29T10:47:11;15.50;;;8.67;;
61911;SDS011;49973;52.084;5.412;2023-03-29T10:49:45;13.53;;;6.90;;
61911;SDS011;49973;52.084;5.412;2023-03-29T10:52:19;13.97;;;8.10;;
61911;SDS011;49973;52.084;5.412;2023-03-29T10:54:49;23.83;;;10.37;;
61911;SDS011;49973;52.084;5.412;2023-03-29T10:57:23;14.53;;;7.40;;
61911;SDS011;49973;52.084;5.412;2023-03-29T10:59:59;13.37;;;7.63;;
61911;SDS011;49973;52.084;5.412;2023-03-29T11:05:32;10.43;;;6.47;;
61911;SDS011;49973;52.084;5.412;2023-03-29T11:08:15;15.23;;;8.23;;
61911;SDS011;49973;52.084;5.412;2023-03-29T11:10:59;11.70;;;7.50;;
61911;SDS011;49973;52.084;5.412;2023-03-29T11:13:37;13.93;;;7.33;;
61911;SDS011;49973;52.084;5.412;2023-03-29T11:16:15;18.67;;;8.33;;
61911;SDS011;49973;52.084;5.412;2023-03-29T11:18:57;14.77;;;8.13;;
61911;SDS011;49973;52.084;5.412;2023-03-29T11:21:50;11.27;;;7.50;;
61911;SDS011;49973;52.084;5.412;2023-03-29T11:24:26;13.00;;;7.87;;
61911;SDS011;49973;52.084;5.412;2023-03-29T11:27:07;12.00;;;7.87;;
61911;SDS011;49973;52.084;5.412;2023-03-29T11:29:44;12.20;;;7.07;;
61911;SDS011;49973;52.084;5.412;2023-03-29T11:32:25;11.20;;;6.70;;
61911;SDS011;49973;52.084;5.412;2023-03-29T11:35:04;9.80;;;7.50;;
61911;SDS011;49973;52.084;5.412;2023-03-29T11:37:43;14.37;;;7.97;;
61911;SDS011;49973;52.084;5.412;2023-03-29T11:43:14;14.47;;;7.67;;
61911;SDS011;49973;52.084;5.412;2023-03-29T11:45:48;10.20;;;6.77;;
61911;SDS011;49973;52.084;5.412;2023-03-29T11:48:21;12.03;;;6.97;;
61911;SDS011;49973;52.084;5.412;2023-03-29T11:50:53;13.50;;;8.07;;
61911;SDS011;49973;52.084;5.412;2023-03-29T11:53:28;9.93;;;6.70;;
61911;SDS011;49973;52.084;5.412;2023-03-29T11:56:05;13.83;;;7.40;;
61911;SDS011;49973;52.084;5.412;2023-03-29T11:58:38;13.63;;;7.90;;
61911;SDS011;49973;52.084;5.412;2023-03-29T12:01:12;14.60;;;8.33;;
61911;SDS011;49973;52.084;5.412;2023-03-29T12:03:45;15.80;;;8.67;;
61911;SDS011;49973;52.084;5.412;2023-03-29T12:06:19;20.83;;;9.33;;
61911;SDS011;49973;52.084;5.412;2023-03-29T12:08:55;15.33;;;9.33;;
61911;SDS011;49973;52.084;5.412;2023-03-29T12:11:28;13.50;;;8.27;;
61911;SDS011;49973;52.084;5.412;2023-03-29T12:14:03;16.80;;;9.80;;
61911;SDS011;49973;52.084;5.412;2023-03-29T12:16:38;11.47;;;8.00;;
61911;SDS011;49973;52.084;5.412;2023-03-29T12:19:13;11.30;;;8.30;;
61911;SDS011;49973;52.084;5.412;2023-03-29T12:21:45;15.87;;;9.03;;
61911;SDS011;49973;52.084;5.412;2023-03-29T12:24:18;13.63;;;9.30;;
61911;SDS011;49973;52.084;5.412;2023-03-29T12:26:51;18.80;;;9.90;;
61911;SDS011;49973;52.084;5.412;2023-03-29T12:29:38;15.27;;;8.87;;
61911;SDS011;49973;52.084;5.412;2023-03-29T12:32:26;16.60;;;9.97;;
61911;SDS011;49973;52.084;5.412;2023-03-29T12:35:34;17.57;;;10.40;;
61911;SDS011;49973;52.084;5.412;2023-03-29T12:38:29;16.60;;;9.97;;
61911;SDS011;49973;52.084;5.412;2023-03-29T12:41:33;18.33;;;12.60;;
61911;SDS011;49973;52.084;5.412;2023-03-29T12:44:36;18.87;;;11.30;;
61911;SDS011;49973;52.084;5.412;2023-03-29T12:47:22;17.37;;;11.83;;
61911;SDS011;49973;52.084;5.412;2023-03-29T12:49:53;19.10;;;11.67;;
61911;SDS011;49973;52.084;5.412;2023-03-29T12:52:24;21.63;;;11.77;;
61911;SDS011;49973;52.084;5.412;2023-03-29T12:54:58;22.63;;;10.77;;
61911;SDS011;49973;52.084;5.412;2023-03-29T12:57:38;16.93;;;11.03;;
61911;SDS011;49973;52.084;5.412;2023-03-29T13:00:24;19.37;;;10.70;;
61911;SDS011;49973;52.084;5.412;2023-03-29T13:02:59;20.33;;;10.43;;
61911;SDS011;49973;52.084;5.412;2023-03-29T13:05:30;24.57;;;11.67;;
61911;SDS011;49973;52.084;5.412;2023-03-29T13:08:10;17.40;;;10.50;;
61911;SDS011;49973;52.084;5.412;2023-03-29T13:10:51;17.07;;;9.53;;
61911;SDS011;49973;52.084;5.412;2023-03-29T13:13:22;13.97;;;9.13;;
61911;SDS011;49973;52.084;5.412;2023-03-29T13:15:54;14.23;;;9.63;;
61911;SDS011;49973;52.084;5.412;2023-03-29T13:18:30;15.07;;;8.00;;
61911;SDS011;49973;52.084;5.412;2023-03-29T13:21:10;16.83;;;8.87;;
61911;SDS011;49973;52.084;5.412;2023-03-29T13:23:47;13.77;;;8.67;;
61911;SDS011;49973;52.084;5.412;2023-03-29T13:29:17;16.63;;;8.80;;
61911;SDS011;49973;52.084;5.412;2023-03-29T13:31:58;19.80;;;9.43;;
61911;SDS011;49973;52.084;5.412;2023-03-29T13:34:35;13.70;;;9.30;;
61911;SDS011;49973;52.084;5.412;2023-03-29T13:37:17;19.13;;;10.00;;
61911;SDS011;49973;52.084;5.412;2023-03-29T13:39:55;15.13;;;9.63;;
61911;SDS011;49973;52.084;5.412;2023-03-29T13:42:24;21.97;;;10.50;;
61911;SDS011;49973;52.084;5.412;2023-03-29T13:45:11;16.93;;;10.00;;
61911;SDS011;49973;52.084;5.412;2023-03-29T13:47:43;14.17;;;9.37;;
61911;SDS011;49973;52.084;5.412;2023-03-29T13:50:34;16.43;;;9.63;;
61911;SDS011;49973;52.084;5.412;2023-03-29T13:53:06;14.17;;;9.37;;
61911;SDS011;49973;52.084;5.412;2023-03-29T13:55:42;13.00;;;7.93;;
61911;SDS011;49973;52.084;5.412;2023-03-29T13:58:17;14.83;;;9.20;;
61911;SDS011;49973;52.084;5.412;2023-03-29T14:00:57;14.23;;;8.47;;
61911;SDS011;49973;52.084;5.412;2023-03-29T14:03:29;14.47;;;8.50;;
61911;SDS011;49973;52.084;5.412;2023-03-29T14:06:07;11.33;;;8.73;;
61911;SDS011;49973;52.084;5.412;2023-03-29T14:08:39;15.83;;;10.07;;
61911;SDS011;49973;52.084;5.412;2023-03-29T14:11:14;13.63;;;9.17;;
61911;SDS011;49973;52.084;5.412;2023-03-29T14:13:50;13.53;;;7.83;;
61911;SDS011;49973;52.084;5.412;2023-03-29T14:16:21;16.07;;;8.87;;
61911;SDS011;49973;52.084;5.412;2023-03-29T14:18:56;11.43;;;8.03;;
61911;SDS011;49973;52.084;5.412;2023-03-29T14:21:25;12.33;;;8.30;;
61911;SDS011;49973;52.084;5.412;2023-03-29T14:23:54;15.83;;;8.37;;
61911;SDS011;49973;52.084;5.412;2023-03-29T14:26:28;15.32;;;9.40;;
61911;SDS011;49973;52.084;5.412;2023-03-29T14:28:59;11.30;;;8.47;;
61911;SDS011;49973;52.084;5.412;2023-03-29T14:31:31;16.20;;;8.30;;
61911;SDS011;49973;52.084;5.412;2023-03-29T14:34:02;13.97;;;8.30;;
61911;SDS011;49973;52.084;5.412;2023-03-29T14:36:33;12.97;;;8.23;;
61911;SDS011;49973;52.084;5.412;2023-03-29T14:39:04;12.63;;;8.00;;
61911;SDS011;49973;52.084;5.412;2023-03-29T14:41:37;11.20;;;7.90;;
61911;SDS011;49973;52.084;5.412;2023-03-29T14:44:07;10.20;;;6.90;;
61911;SDS011;49973;52.084;5.412;2023-03-29T14:46:38;12.83;;;7.47;;
61911;SDS011;49973;52.084;5.412;2023-03-29T14:49:08;13.93;;;6.93;;
61911;SDS011;49973;52.084;5.412;2023-03-29T14:51:39;9.50;;;6.97;;
61911;SDS011;49973;52.084;5.412;2023-03-29T14:54:08;13.43;;;7.13;;
61911;SDS011;49973;52.084;5.412;2023-03-29T14:56:46;9.43;;;6.40;;
61911;SDS011;49973;52.084;5.412;2023-03-29T14:59:20;9.43;;;6.50;;
61911;SDS011;49973;52.084;5.412;2023-03-29T15:01:54;9.60;;;6.47;;
61911;SDS011;49973;52.084;5.412;2023-03-29T15:04:23;9.10;;;6.77;;
61911;SDS011;49973;52.084;5.412;2023-03-29T15:06:59;9.93;;;6.67;;
61911;SDS011;49973;52.084;5.412;2023-03-29T15:09:30;9.23;;;5.80;;
61911;SDS011;49973;52.084;5.412;2023-03-29T15:12:01;10.93;;;6.93;;
61911;SDS011;49973;52.084;5.412;2023-03-29T15:14:31;8.37;;;6.03;;
61911;SDS011;49973;52.084;5.412;2023-03-29T15:17:03;8.27;;;5.83;;
61911;SDS011;49973;52.084;5.412;2023-03-29T15:19:43;8.20;;;5.53;;
61911;SDS011;49973;52.084;5.412;2023-03-29T15:22:11;19.97;;;6.70;;
61911;SDS011;49973;52.084;5.412;2023-03-29T15:24:41;10.77;;;5.87;;
61911;SDS011;49973;52.084;5.412;2023-03-29T15:27:12;8.47;;;5.63;;
61911;SDS011;49973;52.084;5.412;2023-03-29T15:29:42;6.70;;;4.90;;
61911;SDS011;49973;52.084;5.412;2023-03-29T15:32:20;7.10;;;4.40;;
61911;SDS011;49973;52.084;5.412;2023-03-29T15:34:56;7.00;;;4.90;;
61911;SDS011;49973;52.084;5.412;2023-03-29T15:37:25;7.73;;;4.70;;
61911;SDS011;49973;52.084;5.412;2023-03-29T15:39:55;6.93;;;4.80;;
61911;SDS011;49973;52.084;5.412;2023-03-29T15:42:23;10.80;;;5.37;;
61911;SDS011;49973;52.084;5.412;2023-03-29T15:44:53;8.80;;;4.47;;